sensor_id;sensor_type;location;lat;lon;timestamp;temperature;humidity
1686;DHT22;840;47.980;7.830;2023-08-12T00:02:10;23.50;99.90
1686;DHT22;840;47.980;7.830;2023-08-12T00:04:36;23.50;99.90
1686;DHT22;840;47.980;7.830;2023-08-12T00:07:03;23.40;99.90
1686;DHT22;840;47.980;7.830;2023-08-12T00:09:30;23.40;99.90
1686;DHT22;840;47.980;7.830;2023-08-12T00:11:58;23.40;99.90
1686;DHT22;840;47.980;7.830;2023-08-12T00:14:25;23.40;99.90
1686;DHT22;840;47.980;7.830;2023-08-12T00:16:52;23.50;99.90
1686;DHT22;840;47.980;7.830;2023-08-12T00:19:18;23.50;99.90
1686;DHT22;840;47.980;7.830;2023-08-12T00:21:45;23.50;99.90
1686;DHT22;840;47.980;7.830;2023-08-12T00:24:12;23.40;99.90
1686;DHT22;840;47.980;7.830;2023-08-12T00:26:38;23.40;99.90
1686;DHT22;840;47.980;7.830;2023-08-12T00:29:06;23.30;99.90
1686;DHT22;840;47.980;7.830;2023-08-12T00:31:33;23.30;99.90
1686;DHT22;840;47.980;7.830;2023-08-12T00:34:00;23.30;99.90
1686;DHT22;840;47.980;7.830;2023-08-12T00:36:27;23.30;99.90
1686;DHT22;840;47.980;7.830;2023-08-12T00:38:53;23.30;99.90
1686;DHT22;840;47.980;7.830;2023-08-12T00:41:20;23.40;99.90
1686;DHT22;840;47.980;7.830;2023-08-12T00:43:47;23.40;99.90
1686;DHT22;840;47.980;7.830;2023-08-12T00:46:15;23.40;99.90
1686;DHT22;840;47.980;7.830;2023-08-12T00:48:42;23.50;99.90
1686;DHT22;840;47.980;7.830;2023-08-12T00:51:08;23.50;99.90
1686;DHT22;840;47.980;7.830;2023-08-12T00:53:36;23.50;99.90
1686;DHT22;840;47.980;7.830;2023-08-12T00:56:03;23.50;99.90
1686;DHT22;840;47.980;7.830;2023-08-12T00:58:30;23.50;99.90
1686;DHT22;840;47.980;7.830;2023-08-12T01:00:57;23.50;99.90
1686;DHT22;840;47.980;7.830;2023-08-12T01:03:25;23.50;99.90
1686;DHT22;840;47.980;7.830;2023-08-12T01:05:52;23.50;99.90
1686;DHT22;840;47.980;7.830;2023-08-12T01:08:19;23.50;99.90
1686;DHT22;840;47.980;7.830;2023-08-12T01:10:51;23.50;99.90
1686;DHT22;840;47.980;7.830;2023-08-12T01:13:32;23.50;99.90
1686;DHT22;840;47.980;7.830;2023-08-12T01:16:01;23.50;99.90
1686;DHT22;840;47.980;7.830;2023-08-12T01:18:31;23.50;99.90
1686;DHT22;840;47.980;7.830;2023-08-12T01:20:58;23.50;99.90
1686;DHT22;840;47.980;7.830;2023-08-12T01:23:30;23.40;99.90
1686;DHT22;840;47.980;7.830;2023-08-12T01:25:57;23.50;99.90
1686;DHT22;840;47.980;7.830;2023-08-12T01:28:23;23.50;99.90
1686;DHT22;840;47.980;7.830;2023-08-12T01:30:56;23.50;99.90
1686;DHT22;840;47.980;7.830;2023-08-12T01:33:29;23.50;99.90
1686;DHT22;840;47.980;7.830;2023-08-12T01:36:05;23.50;99.90
1686;DHT22;840;47.980;7.830;2023-08-12T01:38:38;23.50;99.90
1686;DHT22;840;47.980;7.830;2023-08-12T01:41:07;23.50;99.90
1686;DHT22;840;47.980;7.830;2023-08-12T01:43:36;23.50;99.90
1686;DHT22;840;47.980;7.830;2023-08-12T01:46:02;23.50;99.90
1686;DHT22;840;47.980;7.830;2023-08-12T01:48:29;23.50;99.90
1686;DHT22;840;47.980;7.830;2023-08-12T01:50:56;23.50;99.90
1686;DHT22;840;47.980;7.830;2023-08-12T01:53:23;23.40;99.90
1686;DHT22;840;47.980;7.830;2023-08-12T01:55:52;23.40;99.90
1686;DHT22;840;47.980;7.830;2023-08-12T01:58:19;23.30;99.90
1686;DHT22;840;47.980;7.830;2023-08-12T02:00:45;23.30;99.90
1686;DHT22;840;47.980;7.830;2023-08-12T02:03:12;23.30;99.90
1686;DHT22;840;47.980;7.830;2023-08-12T02:05:39;23.20;99.90
1686;DHT22;840;47.980;7.830;2023-08-12T02:08:06;23.10;99.90
1686;DHT22;840;47.980;7.830;2023-08-12T02:10:33;23.10;99.90
1686;DHT22;840;47.980;7.830;2023-08-12T02:13:02;23.10;99.90
1686;DHT22;840;47.980;7.830;2023-08-12T02:15:29;23.00;99.90
1686;DHT22;840;47.980;7.830;2023-08-12T02:17:56;23.00;99.90
1686;DHT22;840;47.980;7.830;2023-08-12T02:20:24;23.00;99.90
1686;DHT22;840;47.980;7.830;2023-08-12T02:22:51;23.00;99.90
1686;DHT22;840;47.980;7.830;2023-08-12T02:25:17;23.00;99.90
1686;DHT22;840;47.980;7.830;2023-08-12T02:27:44;23.00;99.90
1686;DHT22;840;47.980;7.830;2023-08-12T02:30:13;23.00;99.90
1686;DHT22;840;47.980;7.830;2023-08-12T02:32:40;23.00;99.90
1686;DHT22;840;47.980;7.830;2023-08-12T02:35:09;23.00;99.90
1686;DHT22;840;47.980;7.830;2023-08-12T02:37:36;23.00;99.90
1686;DHT22;840;47.980;7.830;2023-08-12T02:40:03;23.00;99.90
1686;DHT22;840;47.980;7.830;2023-08-12T02:42:31;22.90;99.90
1686;DHT22;840;47.980;7.830;2023-08-12T02:44:58;22.90;99.90
1686;DHT22;840;47.980;7.830;2023-08-12T02:47:26;22.80;99.90
1686;DHT22;840;47.980;7.830;2023-08-12T02:49:53;22.80;99.90
1686;DHT22;840;47.980;7.830;2023-08-12T02:52:20;22.70;99.90
1686;DHT22;840;47.980;7.830;2023-08-12T02:54:46;22.70;99.90
1686;DHT22;840;47.980;7.830;2023-08-12T02:57:13;22.70;99.90
1686;DHT22;840;47.980;7.830;2023-08-12T02:59:40;22.70;99.90
1686;DHT22;840;47.980;7.830;2023-08-12T03:02:07;22.70;99.90
1686;DHT22;840;47.980;7.830;2023-08-12T03:04:35;22.70;99.90
1686;DHT22;840;47.980;7.830;2023-08-12T03:07:01;22.60;99.90
1686;DHT22;840;47.980;7.830;2023-08-12T03:09:29;22.60;99.90
1686;DHT22;840;47.980;7.830;2023-08-12T03:11:56;22.60;99.90
1686;DHT22;840;47.980;7.830;2023-08-12T03:14:27;22.60;99.90
1686;DHT22;840;47.980;7.830;2023-08-12T03:16:54;22.50;99.90
1686;DHT22;840;47.980;7.830;2023-08-12T03:19:21;22.50;99.90
1686;DHT22;840;47.980;7.830;2023-08-12T03:21:49;22.50;99.90
1686;DHT22;840;47.980;7.830;2023-08-12T03:24:16;22.50;99.90
1686;DHT22;840;47.980;7.830;2023-08-12T03:26:43;22.50;99.90
1686;DHT22;840;47.980;7.830;2023-08-12T03:29:10;22.40;99.90
1686;DHT22;840;47.980;7.830;2023-08-12T03:31:36;22.40;99.90
1686;DHT22;840;47.980;7.830;2023-08-12T03:34:03;22.30;99.90
1686;DHT22;840;47.980;7.830;2023-08-12T03:36:30;22.30;99.90
1686;DHT22;840;47.980;7.830;2023-08-12T03:38:58;22.20;99.90
1686;DHT22;840;47.980;7.830;2023-08-12T03:41:25;22.20;99.90
1686;DHT22;840;47.980;7.830;2023-08-12T03:43:51;22.10;99.90
1686;DHT22;840;47.980;7.830;2023-08-12T03:46:18;22.10;99.90
1686;DHT22;840;47.980;7.830;2023-08-12T03:48:45;22.10;99.90
1686;DHT22;840;47.980;7.830;2023-08-12T03:51:11;22.10;99.90
1686;DHT22;840;47.980;7.830;2023-08-12T03:53:38;22.10;99.90
1686;DHT22;840;47.980;7.830;2023-08-12T03:56:06;22.20;99.90
1686;DHT22;840;47.980;7.830;2023-08-12T03:58:33;22.20;99.90
1686;DHT22;840;47.980;7.830;2023-08-12T04:01:00;22.20;99.90
1686;DHT22;840;47.980;7.830;2023-08-12T04:03:26;22.30;99.90
1686;DHT22;840;47.980;7.830;2023-08-12T04:05:53;22.30;99.90
1686;DHT22;840;47.980;7.830;2023-08-12T04:08:23;22.30;99.90
1686;DHT22;840;47.980;7.830;2023-08-12T04:10:50;22.30;99.90
1686;DHT22;840;47.980;7.830;2023-08-12T04:13:18;22.40;99.90
1686;DHT22;840;47.980;7.830;2023-08-12T04:15:48;22.40;99.90
1686;DHT22;840;47.980;7.830;2023-08-12T04:18:16;22.40;99.90
1686;DHT22;840;47.980;7.830;2023-08-12T04:20:45;22.40;99.90
1686;DHT22;840;47.980;7.830;2023-08-12T04:23:11;22.40;99.90
1686;DHT22;840;47.980;7.830;2023-08-12T04:25:38;22.40;99.90
1686;DHT22;840;47.980;7.830;2023-08-12T04:28:05;22.30;99.90
1686;DHT22;840;47.980;7.830;2023-08-12T04:30:33;22.30;99.90
1686;DHT22;840;47.980;7.830;2023-08-12T04:33:00;22.30;99.90
1686;DHT22;840;47.980;7.830;2023-08-12T04:35:27;22.30;99.90
1686;DHT22;840;47.980;7.830;2023-08-12T04:37:53;22.20;99.90
1686;DHT22;840;47.980;7.830;2023-08-12T04:40:20;22.20;99.90
1686;DHT22;840;47.980;7.830;2023-08-12T04:42:48;22.20;99.90
1686;DHT22;840;47.980;7.830;2023-08-12T04:45:14;22.20;99.90
1686;DHT22;840;47.980;7.830;2023-08-12T04:47:43;22.20;99.90
1686;DHT22;840;47.980;7.830;2023-08-12T04:50:10;22.20;99.90
1686;DHT22;840;47.980;7.830;2023-08-12T04:52:36;22.20;99.90
1686;DHT22;840;47.980;7.830;2023-08-12T04:55:04;22.20;99.90
1686;DHT22;840;47.980;7.830;2023-08-12T04:57:31;22.20;99.90
1686;DHT22;840;47.980;7.830;2023-08-12T04:59:57;22.30;99.90
1686;DHT22;840;47.980;7.830;2023-08-12T05:02:24;22.30;99.90
1686;DHT22;840;47.980;7.830;2023-08-12T05:04:52;22.30;99.90
1686;DHT22;840;47.980;7.830;2023-08-12T05:07:19;22.30;99.90
1686;DHT22;840;47.980;7.830;2023-08-12T05:09:46;22.30;99.90
1686;DHT22;840;47.980;7.830;2023-08-12T05:12:13;22.20;99.90
1686;DHT22;840;47.980;7.830;2023-08-12T05:14:40;22.20;99.90
1686;DHT22;840;47.980;7.830;2023-08-12T05:17:06;22.20;99.90
1686;DHT22;840;47.980;7.830;2023-08-12T05:19:33;22.20;99.90
1686;DHT22;840;47.980;7.830;2023-08-12T05:22:01;22.20;99.90
1686;DHT22;840;47.980;7.830;2023-08-12T05:24:28;22.30;99.90
1686;DHT22;840;47.980;7.830;2023-08-12T05:26:55;22.30;99.90
1686;DHT22;840;47.980;7.830;2023-08-12T05:29:22;22.30;99.90
1686;DHT22;840;47.980;7.830;2023-08-12T05:31:48;22.40;99.90
1686;DHT22;840;47.980;7.830;2023-08-12T05:34:15;22.40;99.90
1686;DHT22;840;47.980;7.830;2023-08-12T05:36:42;22.40;99.90
1686;DHT22;840;47.980;7.830;2023-08-12T05:39:10;22.40;99.90
1686;DHT22;840;47.980;7.830;2023-08-12T05:41:37;22.40;99.90
1686;DHT22;840;47.980;7.830;2023-08-12T05:44:04;22.40;99.90
1686;DHT22;840;47.980;7.830;2023-08-12T05:46:31;22.50;99.90
1686;DHT22;840;47.980;7.830;2023-08-12T05:48:58;22.60;99.90
1686;DHT22;840;47.980;7.830;2023-08-12T05:51:25;22.60;99.90
1686;DHT22;840;47.980;7.830;2023-08-12T05:53:52;22.70;99.90
1686;DHT22;840;47.980;7.830;2023-08-12T05:56:20;22.80;99.90
1686;DHT22;840;47.980;7.830;2023-08-12T05:58:47;22.90;99.90
1686;DHT22;840;47.980;7.830;2023-08-12T06:01:15;22.90;99.90
1686;DHT22;840;47.980;7.830;2023-08-12T06:03:41;22.90;99.90
1686;DHT22;840;47.980;7.830;2023-08-12T06:06:08;23.00;99.90
1686;DHT22;840;47.980;7.830;2023-08-12T06:08:35;22.90;99.90
1686;DHT22;840;47.980;7.830;2023-08-12T06:11:02;23.00;99.90
1686;DHT22;840;47.980;7.830;2023-08-12T06:13:30;23.00;99.90
1686;DHT22;840;47.980;7.830;2023-08-12T06:15:56;23.00;99.90
1686;DHT22;840;47.980;7.830;2023-08-12T06:18:23;23.00;99.90
1686;DHT22;840;47.980;7.830;2023-08-12T06:20:50;23.00;99.90
1686;DHT22;840;47.980;7.830;2023-08-12T06:23:17;22.90;99.90
1686;DHT22;840;47.980;7.830;2023-08-12T06:25:43;22.90;99.90
1686;DHT22;840;47.980;7.830;2023-08-12T06:28:10;23.00;99.90
1686;DHT22;840;47.980;7.830;2023-08-12T06:30:38;23.00;99.90
1686;DHT22;840;47.980;7.830;2023-08-12T06:33:05;23.10;99.90
1686;DHT22;840;47.980;7.830;2023-08-12T06:35:32;23.10;99.90
1686;DHT22;840;47.980;7.830;2023-08-12T06:37:58;23.20;99.90
1686;DHT22;840;47.980;7.830;2023-08-12T06:40:25;23.30;99.90
1686;DHT22;840;47.980;7.830;2023-08-12T06:42:53;23.40;99.90
1686;DHT22;840;47.980;7.830;2023-08-12T06:45:19;23.50;99.90
1686;DHT22;840;47.980;7.830;2023-08-12T06:47:48;23.60;99.90
1686;DHT22;840;47.980;7.830;2023-08-12T06:50:14;23.70;99.90
1686;DHT22;840;47.980;7.830;2023-08-12T06:52:41;23.70;99.90
1686;DHT22;840;47.980;7.830;2023-08-12T06:55:08;23.80;99.90
1686;DHT22;840;47.980;7.830;2023-08-12T06:57:35;23.90;99.90
1686;DHT22;840;47.980;7.830;2023-08-12T07:00:02;23.90;99.90
1686;DHT22;840;47.980;7.830;2023-08-12T07:02:30;23.90;99.90
1686;DHT22;840;47.980;7.830;2023-08-12T07:04:58;24.00;99.90
1686;DHT22;840;47.980;7.830;2023-08-12T07:07:25;24.20;99.90
1686;DHT22;840;47.980;7.830;2023-08-12T07:09:51;24.30;99.90
1686;DHT22;840;47.980;7.830;2023-08-12T07:12:18;24.40;99.90
1686;DHT22;840;47.980;7.830;2023-08-12T07:14:45;24.60;99.90
1686;DHT22;840;47.980;7.830;2023-08-12T07:17:11;24.60;99.90
1686;DHT22;840;47.980;7.830;2023-08-12T07:19:38;24.70;99.90
1686;DHT22;840;47.980;7.830;2023-08-12T07:22:06;24.90;99.90
1686;DHT22;840;47.980;7.830;2023-08-12T07:24:33;25.00;99.90
1686;DHT22;840;47.980;7.830;2023-08-12T07:27:00;25.20;99.90
1686;DHT22;840;47.980;7.830;2023-08-12T07:29:27;25.40;99.90
1686;DHT22;840;47.980;7.830;2023-08-12T07:31:54;25.50;99.90
1686;DHT22;840;47.980;7.830;2023-08-12T07:34:20;25.60;99.90
1686;DHT22;840;47.980;7.830;2023-08-12T07:36:47;25.80;99.90
1686;DHT22;840;47.980;7.830;2023-08-12T07:39:16;25.90;99.90
1686;DHT22;840;47.980;7.830;2023-08-12T07:41:43;25.90;99.90
1686;DHT22;840;47.980;7.830;2023-08-12T07:44:10;26.00;99.90
1686;DHT22;840;47.980;7.830;2023-08-12T07:46:36;26.10;99.90
1686;DHT22;840;47.980;7.830;2023-08-12T07:49:03;26.00;99.90
1686;DHT22;840;47.980;7.830;2023-08-12T07:51:30;26.00;99.90
1686;DHT22;840;47.980;7.830;2023-08-12T07:53:57;25.90;99.90
1686;DHT22;840;47.980;7.830;2023-08-12T07:56:25;25.90;99.90
1686;DHT22;840;47.980;7.830;2023-08-12T07:58:51;25.90;99.90
1686;DHT22;840;47.980;7.830;2023-08-12T08:01:18;25.80;99.90
1686;DHT22;840;47.980;7.830;2023-08-12T08:03:45;25.70;99.90
1686;DHT22;840;47.980;7.830;2023-08-12T08:06:12;25.50;99.90
1686;DHT22;840;47.980;7.830;2023-08-12T08:08:38;25.30;99.90
1686;DHT22;840;47.980;7.830;2023-08-12T08:11:05;25.10;99.90
1686;DHT22;840;47.980;7.830;2023-08-12T08:13:33;25.00;99.90
1686;DHT22;840;47.980;7.830;2023-08-12T08:16:00;24.90;99.90
1686;DHT22;840;47.980;7.830;2023-08-12T08:18:27;24.80;99.90
1686;DHT22;840;47.980;7.830;2023-08-12T08:20:54;24.60;99.90
1686;DHT22;840;47.980;7.830;2023-08-12T08:23:20;24.50;99.90
1686;DHT22;840;47.980;7.830;2023-08-12T08:25:48;24.30;99.90
1686;DHT22;840;47.980;7.830;2023-08-12T08:28:14;24.10;99.90
1686;DHT22;840;47.980;7.830;2023-08-12T08:30:42;23.90;99.90
1686;DHT22;840;47.980;7.830;2023-08-12T08:33:10;23.80;99.90
1686;DHT22;840;47.980;7.830;2023-08-12T08:35:37;23.80;99.90
1686;DHT22;840;47.980;7.830;2023-08-12T08:38:04;23.80;99.90
1686;DHT22;840;47.980;7.830;2023-08-12T08:40:30;23.80;99.90
1686;DHT22;840;47.980;7.830;2023-08-12T08:43:01;23.90;99.90
1686;DHT22;840;47.980;7.830;2023-08-12T08:45:32;23.90;99.90
1686;DHT22;840;47.980;7.830;2023-08-12T08:48:02;23.90;99.90
1686;DHT22;840;47.980;7.830;2023-08-12T08:50:30;24.00;99.90
1686;DHT22;840;47.980;7.830;2023-08-12T08:52:57;24.10;99.90
1686;DHT22;840;47.980;7.830;2023-08-12T08:55:24;24.20;99.90
1686;DHT22;840;47.980;7.830;2023-08-12T08:57:51;24.40;99.90
1686;DHT22;840;47.980;7.830;2023-08-12T09:00:19;24.50;99.90
1686;DHT22;840;47.980;7.830;2023-08-12T09:02:46;24.60;99.90
1686;DHT22;840;47.980;7.830;2023-08-12T09:05:15;24.80;99.90
1686;DHT22;840;47.980;7.830;2023-08-12T09:07:43;24.80;99.90
1686;DHT22;840;47.980;7.830;2023-08-12T09:10:10;24.90;99.90
1686;DHT22;840;47.980;7.830;2023-08-12T09:12:37;24.90;99.90
1686;DHT22;840;47.980;7.830;2023-08-12T09:15:05;24.60;99.90
1686;DHT22;840;47.980;7.830;2023-08-12T09:17:32;24.20;99.90
1686;DHT22;840;47.980;7.830;2023-08-12T09:19:59;23.90;99.90
1686;DHT22;840;47.980;7.830;2023-08-12T09:22:27;23.70;99.90
1686;DHT22;840;47.980;7.830;2023-08-12T09:24:56;23.60;99.90
1686;DHT22;840;47.980;7.830;2023-08-12T09:27:23;23.50;99.90
1686;DHT22;840;47.980;7.830;2023-08-12T09:29:50;23.40;99.90
1686;DHT22;840;47.980;7.830;2023-08-12T09:32:22;23.50;99.90
1686;DHT22;840;47.980;7.830;2023-08-12T09:34:51;23.50;99.90
1686;DHT22;840;47.980;7.830;2023-08-12T09:37:18;23.60;99.90
1686;DHT22;840;47.980;7.830;2023-08-12T09:39:47;23.70;99.90
1686;DHT22;840;47.980;7.830;2023-08-12T09:42:15;23.70;99.90
1686;DHT22;840;47.980;7.830;2023-08-12T09:44:42;23.90;99.90
1686;DHT22;840;47.980;7.830;2023-08-12T09:47:09;24.10;99.90
1686;DHT22;840;47.980;7.830;2023-08-12T09:49:37;24.30;99.90
1686;DHT22;840;47.980;7.830;2023-08-12T09:52:05;24.60;99.90
1686;DHT22;840;47.980;7.830;2023-08-12T09:54:32;24.80;99.90
1686;DHT22;840;47.980;7.830;2023-08-12T09:57:02;25.10;99.90
1686;DHT22;840;47.980;7.830;2023-08-12T09:59:31;25.30;99.90
1686;DHT22;840;47.980;7.830;2023-08-12T10:01:59;25.50;99.90
1686;DHT22;840;47.980;7.830;2023-08-12T10:04:33;25.60;99.90
1686;DHT22;840;47.980;7.830;2023-08-12T10:07:02;25.80;99.90
1686;DHT22;840;47.980;7.830;2023-08-12T10:09:29;26.00;99.90
1686;DHT22;840;47.980;7.830;2023-08-12T10:11:57;26.10;99.90
1686;DHT22;840;47.980;7.830;2023-08-12T10:14:25;26.30;99.90
1686;DHT22;840;47.980;7.830;2023-08-12T10:16:53;26.40;99.90
1686;DHT22;840;47.980;7.830;2023-08-12T10:19:23;26.60;99.90
1686;DHT22;840;47.980;7.830;2023-08-12T10:21:54;26.70;99.90
1686;DHT22;840;47.980;7.830;2023-08-12T10:24:22;26.70;99.90
1686;DHT22;840;47.980;7.830;2023-08-12T10:26:49;26.80;99.90
1686;DHT22;840;47.980;7.830;2023-08-12T10:29:17;26.80;99.90
1686;DHT22;840;47.980;7.830;2023-08-12T10:31:46;26.90;99.90
1686;DHT22;840;47.980;7.830;2023-08-12T10:34:18;27.00;99.90
1686;DHT22;840;47.980;7.830;2023-08-12T10:36:45;27.10;99.90
1686;DHT22;840;47.980;7.830;2023-08-12T10:39:13;27.10;99.90
1686;DHT22;840;47.980;7.830;2023-08-12T10:41:50;27.20;99.90
1686;DHT22;840;47.980;7.830;2023-08-12T10:44:20;27.30;99.90
1686;DHT22;840;47.980;7.830;2023-08-12T10:46:52;27.30;99.90
1686;DHT22;840;47.980;7.830;2023-08-12T10:49:19;27.40;99.90
1686;DHT22;840;47.980;7.830;2023-08-12T10:51:47;27.40;99.90
1686;DHT22;840;47.980;7.830;2023-08-12T10:54:21;27.60;99.90
1686;DHT22;840;47.980;7.830;2023-08-12T10:57:04;27.70;99.90
1686;DHT22;840;47.980;7.830;2023-08-12T10:59:53;27.90;99.90
1686;DHT22;840;47.980;7.830;2023-08-12T11:02:26;28.00;99.90
1686;DHT22;840;47.980;7.830;2023-08-12T11:04:54;28.00;99.90
1686;DHT22;840;47.980;7.830;2023-08-12T11:07:28;27.90;99.90
1686;DHT22;840;47.980;7.830;2023-08-12T11:09:58;27.90;99.90
1686;DHT22;840;47.980;7.830;2023-08-12T11:12:33;27.80;99.90
1686;DHT22;840;47.980;7.830;2023-08-12T11:15:02;27.60;99.90
1686;DHT22;840;47.980;7.830;2023-08-12T11:17:32;27.30;99.90
1686;DHT22;840;47.980;7.830;2023-08-12T11:20:01;27.10;99.90
1686;DHT22;840;47.980;7.830;2023-08-12T11:22:29;26.80;99.90
1686;DHT22;840;47.980;7.830;2023-08-12T11:24:56;26.30;99.90
1686;DHT22;840;47.980;7.830;2023-08-12T11:27:23;25.80;99.90
1686;DHT22;840;47.980;7.830;2023-08-12T11:29:50;25.30;99.90
1686;DHT22;840;47.980;7.830;2023-08-12T11:32:17;24.70;99.90
1686;DHT22;840;47.980;7.830;2023-08-12T11:34:46;24.40;99.90
1686;DHT22;840;47.980;7.830;2023-08-12T11:37:13;24.10;99.90
1686;DHT22;840;47.980;7.830;2023-08-12T11:39:41;24.00;99.90
1686;DHT22;840;47.980;7.830;2023-08-12T11:42:07;23.90;99.90
1686;DHT22;840;47.980;7.830;2023-08-12T11:44:34;23.80;99.90
1686;DHT22;840;47.980;7.830;2023-08-12T11:47:01;23.80;99.90
1686;DHT22;840;47.980;7.830;2023-08-12T11:49:28;23.90;99.90
1686;DHT22;840;47.980;7.830;2023-08-12T11:51:56;24.10;99.90
1686;DHT22;840;47.980;7.830;2023-08-12T11:54:23;24.20;99.90
1686;DHT22;840;47.980;7.830;2023-08-12T11:56:50;24.40;99.90
1686;DHT22;840;47.980;7.830;2023-08-12T11:59:16;24.60;99.90
1686;DHT22;840;47.980;7.830;2023-08-12T12:01:46;24.70;99.90
1686;DHT22;840;47.980;7.830;2023-08-12T12:04:15;24.90;99.90
1686;DHT22;840;47.980;7.830;2023-08-12T12:06:43;25.00;99.90
1686;DHT22;840;47.980;7.830;2023-08-12T12:09:11;25.00;99.90
1686;DHT22;840;47.980;7.830;2023-08-12T12:11:39;25.00;99.90
1686;DHT22;840;47.980;7.830;2023-08-12T12:14:08;25.10;99.90
1686;DHT22;840;47.980;7.830;2023-08-12T12:16:39;25.20;99.90
1686;DHT22;840;47.980;7.830;2023-08-12T12:19:09;25.30;99.90
1686;DHT22;840;47.980;7.830;2023-08-12T12:21:52;25.50;99.90
1686;DHT22;840;47.980;7.830;2023-08-12T12:24:20;25.70;99.90
1686;DHT22;840;47.980;7.830;2023-08-12T12:26:47;26.00;99.90
1686;DHT22;840;47.980;7.830;2023-08-12T12:29:14;26.20;99.90
1686;DHT22;840;47.980;7.830;2023-08-12T12:31:41;26.40;99.90
1686;DHT22;840;47.980;7.830;2023-08-12T12:34:08;26.70;99.90
1686;DHT22;840;47.980;7.830;2023-08-12T12:36:37;26.80;99.90
1686;DHT22;840;47.980;7.830;2023-08-12T12:39:04;26.80;99.90
1686;DHT22;840;47.980;7.830;2023-08-12T12:41:32;26.80;99.90
1686;DHT22;840;47.980;7.830;2023-08-12T12:44:00;27.10;99.90
1686;DHT22;840;47.980;7.830;2023-08-12T12:46:27;27.70;99.90
1686;DHT22;840;47.980;7.830;2023-08-12T12:48:54;28.30;99.90
1686;DHT22;840;47.980;7.830;2023-08-12T12:51:21;28.90;99.90
1686;DHT22;840;47.980;7.830;2023-08-12T12:53:47;29.50;99.90
1686;DHT22;840;47.980;7.830;2023-08-12T12:56:14;30.00;99.90
1686;DHT22;840;47.980;7.830;2023-08-12T12:58:42;30.40;99.90
1686;DHT22;840;47.980;7.830;2023-08-12T13:01:09;30.80;99.90
1686;DHT22;840;47.980;7.830;2023-08-12T13:03:36;31.20;99.90
1686;DHT22;840;47.980;7.830;2023-08-12T13:06:03;31.50;99.90
1686;DHT22;840;47.980;7.830;2023-08-12T13:08:30;31.60;99.90
1686;DHT22;840;47.980;7.830;2023-08-12T13:10:57;31.50;99.90
1686;DHT22;840;47.980;7.830;2023-08-12T13:13:24;31.30;99.90
1686;DHT22;840;47.980;7.830;2023-08-12T13:15:52;30.90;99.90
1686;DHT22;840;47.980;7.830;2023-08-12T13:18:19;30.60;99.90
1686;DHT22;840;47.980;7.830;2023-08-12T13:20:46;30.40;99.90
1686;DHT22;840;47.980;7.830;2023-08-12T13:23:14;30.30;99.90
1686;DHT22;840;47.980;7.830;2023-08-12T13:25:40;30.30;99.90
1686;DHT22;840;47.980;7.830;2023-08-12T13:28:07;30.40;99.90
1686;DHT22;840;47.980;7.830;2023-08-12T13:30:36;30.50;99.90
1686;DHT22;840;47.980;7.830;2023-08-12T13:33:04;30.70;99.90
1686;DHT22;840;47.980;7.830;2023-08-12T13:35:31;30.80;99.90
1686;DHT22;840;47.980;7.830;2023-08-12T13:37:58;30.80;99.90
1686;DHT22;840;47.980;7.830;2023-08-12T13:40:25;30.80;99.90
1686;DHT22;840;47.980;7.830;2023-08-12T13:42:52;30.70;99.90
1686;DHT22;840;47.980;7.830;2023-08-12T13:45:18;30.50;99.90
1686;DHT22;840;47.980;7.830;2023-08-12T13:47:45;30.20;99.90
1686;DHT22;840;47.980;7.830;2023-08-12T13:50:13;30.20;99.90
1686;DHT22;840;47.980;7.830;2023-08-12T13:52:40;30.00;99.90
1686;DHT22;840;47.980;7.830;2023-08-12T13:55:07;29.80;99.90
1686;DHT22;840;47.980;7.830;2023-08-12T13:57:34;29.70;99.90
1686;DHT22;840;47.980;7.830;2023-08-12T14:00:01;29.60;99.90
1686;DHT22;840;47.980;7.830;2023-08-12T14:02:31;29.70;99.90
1686;DHT22;840;47.980;7.830;2023-08-12T14:04:58;29.80;99.90
1686;DHT22;840;47.980;7.830;2023-08-12T14:07:26;29.80;99.90
1686;DHT22;840;47.980;7.830;2023-08-12T14:09:53;29.70;99.90
1686;DHT22;840;47.980;7.830;2023-08-12T14:12:19;29.70;99.90
1686;DHT22;840;47.980;7.830;2023-08-12T14:14:46;29.50;99.90
1686;DHT22;840;47.980;7.830;2023-08-12T14:17:13;29.50;99.90
1686;DHT22;840;47.980;7.830;2023-08-12T14:19:43;29.40;99.90
1686;DHT22;840;47.980;7.830;2023-08-12T14:22:10;29.30;99.90
1686;DHT22;840;47.980;7.830;2023-08-12T14:24:38;29.20;99.90
1686;DHT22;840;47.980;7.830;2023-08-12T14:27:05;29.20;99.90
1686;DHT22;840;47.980;7.830;2023-08-12T14:29:32;29.20;99.90
1686;DHT22;840;47.980;7.830;2023-08-12T14:31:58;29.20;99.90
1686;DHT22;840;47.980;7.830;2023-08-12T14:34:25;29.10;99.90
1686;DHT22;840;47.980;7.830;2023-08-12T14:36:52;29.10;99.90
1686;DHT22;840;47.980;7.830;2023-08-12T14:39:19;29.00;99.90
1686;DHT22;840;47.980;7.830;2023-08-12T14:41:47;29.10;99.90
1686;DHT22;840;47.980;7.830;2023-08-12T14:44:14;29.20;99.90
1686;DHT22;840;47.980;7.830;2023-08-12T14:46:41;29.50;99.90
1686;DHT22;840;47.980;7.830;2023-08-12T14:49:08;29.60;99.90
1686;DHT22;840;47.980;7.830;2023-08-12T14:51:34;29.90;99.90
1686;DHT22;840;47.980;7.830;2023-08-12T14:54:01;30.10;99.90
1686;DHT22;840;47.980;7.830;2023-08-12T14:56:28;30.40;99.90
1686;DHT22;840;47.980;7.830;2023-08-12T14:58:56;30.90;99.90
1686;DHT22;840;47.980;7.830;2023-08-12T15:01:23;31.20;99.90
1686;DHT22;840;47.980;7.830;2023-08-12T15:03:52;31.50;99.90
1686;DHT22;840;47.980;7.830;2023-08-12T15:06:20;31.60;99.90
1686;DHT22;840;47.980;7.830;2023-08-12T15:08:47;31.70;99.90
1686;DHT22;840;47.980;7.830;2023-08-12T15:11:14;31.80;99.90
1686;DHT22;840;47.980;7.830;2023-08-12T15:13:41;31.80;99.90
1686;DHT22;840;47.980;7.830;2023-08-12T15:16:09;31.70;99.90
1686;DHT22;840;47.980;7.830;2023-08-12T15:18:36;31.60;99.90
1686;DHT22;840;47.980;7.830;2023-08-12T15:21:03;31.40;99.90
1686;DHT22;840;47.980;7.830;2023-08-12T15:23:30;31.20;99.90
1686;DHT22;840;47.980;7.830;2023-08-12T15:25:58;31.00;99.90
1686;DHT22;840;47.980;7.830;2023-08-12T15:28:25;30.80;99.90
1686;DHT22;840;47.980;7.830;2023-08-12T15:30:52;30.60;99.90
1686;DHT22;840;47.980;7.830;2023-08-12T15:33:20;30.40;99.90
1686;DHT22;840;47.980;7.830;2023-08-12T15:35:47;30.20;99.90
1686;DHT22;840;47.980;7.830;2023-08-12T15:38:14;30.10;99.90
1686;DHT22;840;47.980;7.830;2023-08-12T15:40:41;30.00;99.90
1686;DHT22;840;47.980;7.830;2023-08-12T15:43:08;29.90;99.90
1686;DHT22;840;47.980;7.830;2023-08-12T15:45:36;29.80;99.90
1686;DHT22;840;47.980;7.830;2023-08-12T15:48:05;29.70;99.90
1686;DHT22;840;47.980;7.830;2023-08-12T15:50:34;29.60;99.90
1686;DHT22;840;47.980;7.830;2023-08-12T15:53:00;29.50;99.90
1686;DHT22;840;47.980;7.830;2023-08-12T15:55:27;29.50;99.90
1686;DHT22;840;47.980;7.830;2023-08-12T15:57:54;29.40;99.90
1686;DHT22;840;47.980;7.830;2023-08-12T16:00:21;29.30;99.90
1686;DHT22;840;47.980;7.830;2023-08-12T16:02:48;29.30;99.90
1686;DHT22;840;47.980;7.830;2023-08-12T16:05:15;29.30;99.90
1686;DHT22;840;47.980;7.830;2023-08-12T16:07:43;29.20;99.90
1686;DHT22;840;47.980;7.830;2023-08-12T16:10:10;29.20;99.90
1686;DHT22;840;47.980;7.830;2023-08-12T16:12:37;29.20;99.90
1686;DHT22;840;47.980;7.830;2023-08-12T16:15:04;29.10;99.90
1686;DHT22;840;47.980;7.830;2023-08-12T16:17:31;29.10;99.90
1686;DHT22;840;47.980;7.830;2023-08-12T16:19:58;29.00;99.90